Ceska — CQPF — position and weather

sailwx.info

Track history (hours):
 
Tides and Currents Weather Stations Pressure Air Temp Water Temp Dewpoint Dewpoint Depression Visibility Wind Speed Wind Dir Waves Ship Positions

Ceska

Last reported at 2018-Jun-18 13:22 UTC. Time now 2018-Jun-19 15:52 UTC.
Position N 36°03' W 005°22'.

Length 75 m; draft 5.2 m.

Type: Ship (hazmat cat A). MMSI: 255801990.

Date/timePositionNaut miles runAvg speedWind from/ knotsBaromVisibWave heightAir tempDewpointWater temp
2018-Jun-18 13:22N 36°03' W 005°22'3 9.4
2018-Jun-18 13:00N 35°59' W 005°23'611.1
2018-Jun-18 12:29N 35°57' W 005°30'  
2018-Jun-15 15:56N 29°40' W 014°26'8 8.6
2018-Jun-15 15:02N 29°35' W 014°33'0 8.5
2018-Jun-15 15:00N 29°34' W 014°33'4 8.7
2018-Jun-15 14:29N 29°31' W 014°37'18 8.6
2018-Jun-15 12:24N 29°20' W 014°53'24 8.1
2018-Jun-15 09:28N 29°04' W 015°13'4 8.1
2018-Jun-15 08:56N 29°01' W 015°17'4 7.8
2018-Jun-15 08:29N 28°59' W 015°20'4 7.8
2018-Jun-15 08:00N 28°56' W 015°23'4 7.7
2018-Jun-15 07:30N 28°54' W 015°26'4 7.8
2018-Jun-15 07:00N 28°51' W 015°30'4 7.9
2018-Jun-15 06:29N 28°49' W 015°33'4 7.8
2018-Jun-15 06:00N 28°46' W 015°36'4 8.2
2018-Jun-15 05:28N 28°43' W 015°40'4 8.2
2018-Jun-15 05:00N 28°41' W 015°44'5 8.5
2018-Jun-15 04:28N 28°38' W 015°48'4 8.5
2018-Jun-15 04:00N 28°36' W 015°52'4 8.6
2018-Jun-15 03:30N 28°34' W 015°56'4 8.6
2018-Jun-15 03:00N 28°33' W 016°00'4 8.7
2018-Jun-15 02:30N 28°31' W 016°05'5 9.4
2018-Jun-15 02:00N 28°29' W 016°10'5 9.8
2018-Jun-15 01:30N 28°27' W 016°15'1 0.4
2018-Jun-14 22:59N 28°27' W 016°16'0 0.0
2018-Jun-14 22:11N 28°27' W 016°16'0 0.0
2018-Jun-14 21:59N 28°27' W 016°16'0 0.0
2018-Jun-14 21:04N 28°27' W 016°16'0 0.0
2018-Jun-14 19:58N 28°27' W 016°16'0 0.0
2018-Jun-14 19:29N 28°27' W 016°16'0 0.0
2018-Jun-14 18:42N 28°27' W 016°16'0 0.0
2018-Jun-14 17:27N 28°27' W 016°16'0 0.0
2018-Jun-14 16:50N 28°27' W 016°16'0 0.0
2018-Jun-14 16:26N 28°27' W 016°16'0 0.0
2018-Jun-14 15:59N 28°27' W 016°16'0 0.0
2018-Jun-14 15:26N 28°27' W 016°16'0 0.0
2018-Jun-14 14:50N 28°27' W 016°16'0 0.0
2018-Jun-14 14:13N 28°27' W 016°16'0 0.0
2018-Jun-14 13:55N 28°27' W 016°16'0 0.0
2018-Jun-14 12:18N 28°27' W 016°16'0 0.0
2018-Jun-14 11:54N 28°27' W 016°16'0 0.0
2018-Jun-14 11:24N 28°27' W 016°16'0 0.0
2018-Jun-14 10:48N 28°27' W 016°16'0 0.0
2018-Jun-14 09:41N 28°27' W 016°16'0 0.0
2018-Jun-14 09:23N 28°27' W 016°16'0 0.0
2018-Jun-14 08:59N 28°27' W 016°16'0 0.0
2018-Jun-14 08:11N 28°27' W 016°16'0 0.0
2018-Jun-14 07:53N 28°27' W 016°16'0 0.0
2018-Jun-14 07:17N 28°27' W 016°16'0 0.0
2018-Jun-14 06:56N 28°27' W 016°16'0 0.2
2018-Jun-14 06:30N 28°27' W 016°16'3 6.2
2018-Jun-14 06:00N 28°28' W 016°13'4 8.8
2018-Jun-14 05:30N 28°30' W 016°08'5 9.1
2018-Jun-14 05:00N 28°31' W 016°03'4 8.9
2018-Jun-14 04:30N 28°34' W 015°59'4 9.0
2018-Jun-14 04:00N 28°38' W 015°56'5 8.9
2018-Jun-14 03:29N 28°41' W 015°52'4 9.1
2018-Jun-14 03:00N 28°44' W 015°49'5 9.0
2018-Jun-14 02:28N 28°48' W 015°45'4 9.1
2018-Jun-14 01:59N 28°51' W 015°42'6 9.2
2018-Jun-14 01:17N 28°56' W 015°37'4 9.1
2018-Jun-14 00:52N 28°59' W 015°34'  
Track history (hours):
 
Tides and Currents Weather Stations Pressure Air Temp Water Temp Dewpoint Dewpoint Depression Visibility Wind Speed Wind Dir Waves Ship Positions

Ceska

Last reported at 2018-Jun-18 13:22 UTC. Time now 2018-Jun-19 15:52 UTC.
Position N 36°03' W 005°22'.

Length 75 m; draft 5.2 m.

Type: Ship (hazmat cat A). MMSI: 255801990.

Date/timePositionNaut miles runAvg speedWind from/ knotsBaromVisibWave heightAir tempDewpointWater temp
2018-Jun-18 13:22N 36°03' W 005°22'3 9.4
2018-Jun-18 13:00N 35°59' W 005°23'611.1
2018-Jun-18 12:29N 35°57' W 005°30'  
2018-Jun-15 15:56N 29°40' W 014°26'8 8.6
2018-Jun-15 15:02N 29°35' W 014°33'0 8.5
2018-Jun-15 15:00N 29°34' W 014°33'4 8.7
2018-Jun-15 14:29N 29°31' W 014°37'18 8.6
2018-Jun-15 12:24N 29°20' W 014°53'24 8.1
2018-Jun-15 09:28N 29°04' W 015°13'4 8.1
2018-Jun-15 08:56N 29°01' W 015°17'4 7.8
2018-Jun-15 08:29N 28°59' W 015°20'4 7.8
2018-Jun-15 08:00N 28°56' W 015°23'4 7.7
2018-Jun-15 07:30N 28°54' W 015°26'4 7.8
2018-Jun-15 07:00N 28°51' W 015°30'4 7.9
2018-Jun-15 06:29N 28°49' W 015°33'4 7.8
2018-Jun-15 06:00N 28°46' W 015°36'4 8.2
2018-Jun-15 05:28N 28°43' W 015°40'4 8.2
2018-Jun-15 05:00N 28°41' W 015°44'5 8.5
2018-Jun-15 04:28N 28°38' W 015°48'4 8.5
2018-Jun-15 04:00N 28°36' W 015°52'4 8.6
2018-Jun-15 03:30N 28°34' W 015°56'4 8.6
2018-Jun-15 03:00N 28°33' W 016°00'4 8.7
2018-Jun-15 02:30N 28°31' W 016°05'5 9.4
2018-Jun-15 02:00N 28°29' W 016°10'5 9.8
2018-Jun-15 01:30N 28°27' W 016°15'1 0.4
2018-Jun-14 22:59N 28°27' W 016°16'0 0.0
2018-Jun-14 22:11N 28°27' W 016°16'0 0.0
2018-Jun-14 21:59N 28°27' W 016°16'0 0.0
2018-Jun-14 21:04N 28°27' W 016°16'0 0.0
2018-Jun-14 19:58N 28°27' W 016°16'0 0.0
2018-Jun-14 19:29N 28°27' W 016°16'0 0.0
2018-Jun-14 18:42N 28°27' W 016°16'0 0.0
2018-Jun-14 17:27N 28°27' W 016°16'0 0.0
2018-Jun-14 16:50N 28°27' W 016°16'0 0.0
2018-Jun-14 16:26N 28°27' W 016°16'0 0.0
2018-Jun-14 15:59N 28°27' W 016°16'0 0.0
2018-Jun-14 15:26N 28°27' W 016°16'0 0.0
2018-Jun-14 14:50N 28°27' W 016°16'0 0.0
2018-Jun-14 14:13N 28°27' W 016°16'0 0.0
2018-Jun-14 13:55N 28°27' W 016°16'0 0.0
2018-Jun-14 12:18N 28°27' W 016°16'0 0.0
2018-Jun-14 11:54N 28°27' W 016°16'0 0.0
2018-Jun-14 11:24N 28°27' W 016°16'0 0.0
2018-Jun-14 10:48N 28°27' W 016°16'0 0.0
2018-Jun-14 09:41N 28°27' W 016°16'0 0.0
2018-Jun-14 09:23N 28°27' W 016°16'0 0.0
2018-Jun-14 08:59N 28°27' W 016°16'0 0.0
2018-Jun-14 08:11N 28°27' W 016°16'0 0.0
2018-Jun-14 07:53N 28°27' W 016°16'0 0.0
2018-Jun-14 07:17N 28°27' W 016°16'0 0.0
2018-Jun-14 06:56N 28°27' W 016°16'0 0.2
2018-Jun-14 06:30N 28°27' W 016°16'3 6.2
2018-Jun-14 06:00N 28°28' W 016°13'4 8.8
2018-Jun-14 05:30N 28°30' W 016°08'5 9.1
2018-Jun-14 05:00N 28°31' W 016°03'4 8.9
2018-Jun-14 04:30N 28°34' W 015°59'4 9.0
2018-Jun-14 04:00N 28°38' W 015°56'5 8.9
2018-Jun-14 03:29N 28°41' W 015°52'4 9.1
2018-Jun-14 03:00N 28°44' W 015°49'5 9.0
2018-Jun-14 02:28N 28°48' W 015°45'4 9.1
2018-Jun-14 01:59N 28°51' W 015°42'6 9.2
2018-Jun-14 01:17N 28°56' W 015°37'4 9.1
2018-Jun-14 00:52N 28°59' W 015°34'  

Dump ship's entire track history